Time;durP1;ratioP1;P1;durP2;ratioP2;P2;SDS_P1;SDS_P2;PMS_P1;PMS_P2;Temp;Humidity;BMP_temperature;BMP_pressure;BME280_temperature;BME280_humidity;BME280_pressure;Samples;Min_cycle;Max_cycle;Signal;HPM_P1;HPM_P2
2023/05/09 00:00:46;;;;;;;6.45;4.55;;;;;;;;;;12669315;23;20375;-83
2023/05/09 00:05:49;;;;;;;5.43;4.70;;;;;;;;;;12667866;23;20867;-83
2023/05/09 00:10:53;;;;;;;6.60;5.00;;;;;;;;;;12668296;23;20367;-83
2023/05/09 00:15:57;;;;;;;7.13;4.93;;;;;;;;;;12668956;23;20906;-83
2023/05/09 00:21:01;;;;;;;12.25;5.38;;;;;;;;;;12667638;23;20371;-83
2023/05/09 00:26:05;;;;;;;7.27;5.20;;;;;;;;;;12667987;23;20383;-83
2023/05/09 00:31:07;;;;;;;5.30;4.68;;;;;;;;;;12668320;23;20371;-83
2023/05/09 00:36:09;;;;;;;5.90;4.77;;;;;;;;;;12668168;23;20379;-83
2023/05/09 00:41:13;;;;;;;6.80;4.53;;;;;;;;;;12668368;23;20736;-83
2023/05/09 00:46:15;;;;;;;6.72;5.00;;;;;;;;;;12668791;23;20685;-83
2023/05/09 00:51:18;;;;;;;6.45;5.32;;;;;;;;;;12667406;23;20371;-83
2023/05/09 00:56:21;;;;;;;7.43;5.60;;;;;;;;;;12663400;23;20407;-83
2023/05/09 01:01:25;;;;;;;8.07;5.82;;;;;;;;;;12666716;23;20411;-83
2023/05/09 01:06:38;;;;;;;7.75;5.65;;;;;;;;;;12663906;23;20454;-83
2023/05/09 01:11:47;;;;;;;6.40;5.45;;;;;;;;;;12668191;23;20367;-83
2023/05/09 01:16:59;;;;;;;7.50;5.70;;;;;;;;;;12668751;23;20382;-83
2023/05/09 01:22:04;;;;;;;8.00;5.72;;;;;;;;;;12667892;23;20379;-83
2023/05/09 01:27:22;;;;;;;9.55;5.93;;;;;;;;;;12668237;23;20391;-83
2023/05/09 01:32:28;;;;;;;6.83;5.63;;;;;;;;;;12666655;23;20430;-83
2023/05/09 01:37:32;;;;;;;6.38;5.38;;;;;;;;;;12668322;23;20379;-84
2023/05/09 01:42:41;;;;;;;6.53;5.70;;;;;;;;;;12667661;23;20430;-83
2023/05/09 01:47:44;;;;;;;6.97;5.78;;;;;;;;;;12667836;23;20387;-83
2023/05/09 01:52:50;;;;;;;7.40;5.33;;;;;;;;;;12667376;23;20434;-83
2023/05/09 01:57:53;;;;;;;6.53;5.15;;;;;;;;;;12668578;23;20376;-83
2023/05/09 02:02:58;;;;;;;6.93;5.60;;;;;;;;;;12667470;23;20710;-83
2023/05/09 02:08:02;;;;;;;6.83;5.33;;;;;;;;;;12666948;23;20391;-83
2023/05/09 02:13:05;;;;;;;6.60;5.47;;;;;;;;;;12667963;23;20824;-83
2023/05/09 02:18:09;;;;;;;6.35;5.32;;;;;;;;;;12668393;23;20426;-83
2023/05/09 02:23:12;;;;;;;6.95;5.30;;;;;;;;;;12670409;23;20430;-84
2023/05/09 02:28:15;;;;;;;8.45;5.80;;;;;;;;;;12671684;23;20391;-83
2023/05/09 02:33:19;;;;;;;6.25;5.18;;;;;;;;;;12671745;23;20376;-83
2023/05/09 02:38:21;;;;;;;7.20;5.30;;;;;;;;;;12670563;23;20371;-83
2023/05/09 02:43:23;;;;;;;5.90;5.20;;;;;;;;;;12670626;23;20426;-83
2023/05/09 02:48:27;;;;;;;6.28;5.30;;;;;;;;;;12670011;23;20461;-83
2023/05/09 02:53:29;;;;;;;6.85;5.63;;;;;;;;;;12669544;23;20434;-83
2023/05/09 02:58:32;;;;;;;6.75;5.63;;;;;;;;;;12669617;23;20446;-84
2023/05/09 03:03:36;;;;;;;7.00;5.53;;;;;;;;;;12670652;23;20411;-84
2023/05/09 03:08:38;;;;;;;10.60;5.95;;;;;;;;;;12669318;23;20716;-83
2023/05/09 03:13:40;;;;;;;7.73;5.57;;;;;;;;;;12670549;23;20472;-83
2023/05/09 03:18:44;;;;;;;6.45;5.45;;;;;;;;;;12670230;23;20367;-84
2023/05/09 03:23:46;;;;;;;5.95;5.30;;;;;;;;;;12670160;23;20434;-83
2023/05/09 03:28:49;;;;;;;7.22;5.78;;;;;;;;;;12669100;23;20391;-83
2023/05/09 03:33:52;;;;;;;7.20;5.90;;;;;;;;;;12670428;23;20407;-83
2023/05/09 03:38:54;;;;;;;8.40;5.83;;;;;;;;;;12669988;23;20434;-83
2023/05/09 03:43:57;;;;;;;6.88;5.85;;;;;;;;;;12668930;23;20438;-83
2023/05/09 03:49:00;;;;;;;7.30;5.53;;;;;;;;;;12669838;23;20391;-83
2023/05/09 03:54:03;;;;;;;6.53;5.20;;;;;;;;;;12669785;23;20375;-83
2023/05/09 03:59:05;;;;;;;7.65;5.63;;;;;;;;;;12669716;23;20748;-83
2023/05/09 04:04:09;;;;;;;7.97;5.78;;;;;;;;;;12669698;23;20430;-83
2023/05/09 04:09:11;;;;;;;7.35;5.43;;;;;;;;;;12668968;23;20391;-83
2023/05/09 04:14:13;;;;;;;6.70;5.60;;;;;;;;;;12668497;23;20367;-83
2023/05/09 04:19:17;;;;;;;7.27;5.43;;;;;;;;;;12668645;23;20422;-83
2023/05/09 04:24:19;;;;;;;6.33;5.30;;;;;;;;;;12669742;23;20375;-83
2023/05/09 04:29:22;;;;;;;6.88;5.30;;;;;;;;;;12668247;23;20395;-82
2023/05/09 04:34:26;;;;;;;5.95;5.35;;;;;;;;;;12666481;23;20774;-83
2023/05/09 04:39:29;;;;;;;7.40;5.70;;;;;;;;;;12668601;23;20418;-84
2023/05/09 04:44:32;;;;;;;9.23;6.05;;;;;;;;;;12665205;23;20446;-83
2023/05/09 04:49:35;;;;;;;6.65;5.57;;;;;;;;;;12666684;23;20763;-82
2023/05/09 04:54:37;;;;;;;7.07;5.50;;;;;;;;;;12668107;23;20372;-82
2023/05/09 04:59:40;;;;;;;6.45;5.20;;;;;;;;;;12666236;23;20378;-84
2023/05/09 05:04:43;;;;;;;8.20;6.00;;;;;;;;;;12666303;23;20700;-83
2023/05/09 05:09:45;;;;;;;7.32;5.28;;;;;;;;;;12668452;23;20374;-83
2023/05/09 05:14:48;;;;;;;6.70;6.00;;;;;;;;;;12661120;23;20382;-81
2023/05/09 05:19:51;;;;;;;8.45;5.60;;;;;;;;;;12653780;23;20375;-81
2023/05/09 05:24:54;;;;;;;7.03;5.20;;;;;;;;;;12664294;23;20379;-81
2023/05/09 05:29:56;;;;;;;7.63;5.43;;;;;;;;;;12663759;23;20375;-82
2023/05/09 05:35:01;;;;;;;7.53;5.80;;;;;;;;;;12661317;23;20371;-83
2023/05/09 05:40:04;;;;;;;7.30;5.50;;;;;;;;;;12663042;23;20824;-82
2023/05/09 05:45:07;;;;;;;7.78;5.50;;;;;;;;;;12662941;23;20422;-82
2023/05/09 05:50:11;;;;;;;8.10;5.78;;;;;;;;;;12656335;23;20426;-82
2023/05/09 05:55:14;;;;;;;7.28;6.20;;;;;;;;;;12663895;23;20425;-82
2023/05/09 06:00:17;;;;;;;8.33;6.03;;;;;;;;;;12670063;23;20408;-83
2023/05/09 06:05:20;;;;;;;7.03;5.95;;;;;;;;;;12662739;23;20874;-83
2023/05/09 06:10:22;;;;;;;6.65;5.45;;;;;;;;;;12664718;23;20368;-83
2023/05/09 06:15:25;;;;;;;8.40;5.53;;;;;;;;;;12662098;23;20407;-84
2023/05/09 06:20:29;;;;;;;7.07;5.60;;;;;;;;;;12655281;23;20742;-83
2023/05/09 06:25:31;;;;;;;6.05;5.10;;;;;;;;;;12664153;23;20712;-82
2023/05/09 06:30:33;;;;;;;7.15;5.70;;;;;;;;;;12660497;23;20447;-83
2023/05/09 06:35:37;;;;;;;8.10;5.78;;;;;;;;;;12659781;23;20438;-83
2023/05/09 06:40:39;;;;;;;8.37;5.90;;;;;;;;;;12660909;23;20448;-83
2023/05/09 06:45:41;;;;;;;10.70;5.78;;;;;;;;;;12665894;23;20411;-82
2023/05/09 06:50:45;;;;;;;6.93;5.70;;;;;;;;;;12665233;23;20371;-83
2023/05/09 06:55:47;;;;;;;7.43;5.97;;;;;;;;;;12663729;23;20446;-82
2023/05/09 07:00:50;;;;;;;6.70;5.47;;;;;;;;;;12665627;23;20371;-84
2023/05/09 07:05:55;;;;;;;7.13;5.93;;;;;;;;;;12663846;23;20752;-83
2023/05/09 07:10:58;;;;;;;8.55;5.97;;;;;;;;;;12664709;23;20765;-84
2023/05/09 07:16:00;;;;;;;8.00;5.83;;;;;;;;;;12665509;23;20371;-84
2023/05/09 07:21:04;;;;;;;7.60;5.78;;;;;;;;;;12663561;23;20375;-84
2023/05/09 07:26:06;;;;;;;7.20;5.85;;;;;;;;;;12664143;23;20427;-83
2023/05/09 07:31:09;;;;;;;8.13;6.10;;;;;;;;;;12666355;23;20396;-83
2023/05/09 07:36:15;;;;;;;7.88;6.05;;;;;;;;;;12664091;23;20375;-84
2023/05/09 07:41:17;;;;;;;8.38;5.53;;;;;;;;;;12665089;23;20371;-84
2023/05/09 07:46:19;;;;;;;8.23;5.10;;;;;;;;;;12664294;23;20873;-84
2023/05/09 07:51:23;;;;;;;7.13;5.45;;;;;;;;;;12664044;23;20836;-82
2023/05/09 07:56:26;;;;;;;7.85;5.07;;;;;;;;;;12664164;23;20433;-85
2023/05/09 08:01:28;;;;;;;5.85;5.15;;;;;;;;;;12663924;23;20412;-85
2023/05/09 08:06:31;;;;;;;6.47;4.70;;;;;;;;;;12663041;23;20391;-85
2023/05/09 08:11:35;;;;;;;7.27;5.57;;;;;;;;;;12663353;23;20426;-85
2023/05/09 08:16:37;;;;;;;7.45;5.43;;;;;;;;;;12665516;23;20371;-85
2023/05/09 08:21:40;;;;;;;6.73;5.30;;;;;;;;;;12662975;23;20409;-84
2023/05/09 08:26:43;;;;;;;7.30;5.30;;;;;;;;;;12662498;23;20485;-84
2023/05/09 08:31:46;;;;;;;7.55;5.78;;;;;;;;;;12663980;23;20375;-83
2023/05/09 08:36:49;;;;;;;8.23;5.95;;;;;;;;;;12664128;23;20371;-84
2023/05/09 08:41:53;;;;;;;8.07;5.95;;;;;;;;;;12662428;23;20484;-85
2023/05/09 08:46:58;;;;;;;7.53;5.80;;;;;;;;;;12661838;23;20391;-83
2023/05/09 08:52:02;;;;;;;8.33;5.70;;;;;;;;;;12663866;23;20803;-84
2023/05/09 08:57:05;;;;;;;9.30;6.30;;;;;;;;;;12663567;23;20439;-83
2023/05/09 09:02:07;;;;;;;11.23;6.53;;;;;;;;;;12662275;23;20433;-84
2023/05/09 09:07:12;;;;;;;7.63;5.80;;;;;;;;;;12657446;23;20450;-84
2023/05/09 09:12:17;;;;;;;7.82;5.85;;;;;;;;;;12663628;23;20379;-84
2023/05/09 09:17:26;;;;;;;8.70;6.65;;;;;;;;;;12662486;23;20371;-85
2023/05/09 09:22:33;;;;;;;7.32;5.93;;;;;;;;;;12663733;23;20402;-84
2023/05/09 09:27:35;;;;;;;8.25;6.22;;;;;;;;;;12662403;23;20390;-84
2023/05/09 09:32:38;;;;;;;8.40;6.43;;;;;;;;;;12667321;23;20363;-85
2023/05/09 09:37:42;;;;;;;7.22;6.00;;;;;;;;;;12666456;23;20379;-84
2023/05/09 09:42:46;;;;;;;8.60;6.78;;;;;;;;;;12667005;23;20367;-86
2023/05/09 09:47:49;;;;;;;5.63;4.47;;;;;;;;;;12666404;23;20449;-85
2023/05/09 09:52:55;;;;;;;7.43;4.73;;;;;;;;;;12666516;23;20410;-85
2023/05/09 09:57:57;;;;;;;5.32;4.45;;;;;;;;;;12666003;23;20707;-85
2023/05/09 10:03:00;;;;;;;7.07;4.83;;;;;;;;;;12667075;23;20823;-83
2023/05/09 10:08:06;;;;;;;5.47;4.60;;;;;;;;;;12665374;23;20394;-84
2023/05/09 10:13:11;;;;;;;5.38;4.55;;;;;;;;;;11775359;23;21144;-85
2023/05/09 10:18:18;;;;;;;4.50;4.10;;;;;;;;;;12666228;23;20411;-85
2023/05/09 10:23:23;;;;;;;5.28;4.20;;;;;;;;;;12665332;23;20407;-83
2023/05/09 10:28:31;;;;;;;4.60;3.78;;;;;;;;;;12666074;23;20422;-84
2023/05/09 10:33:42;;;;;;;4.88;4.07;;;;;;;;;;12670202;23;20375;-84
2023/05/09 10:38:47;;;;;;;4.60;4.20;;;;;;;;;;12669770;23;20403;-85
2023/05/09 10:43:49;;;;;;;5.47;4.57;;;;;;;;;;12669566;23;20422;-84
2023/05/09 10:48:52;;;;;;;5.73;4.00;;;;;;;;;;12671203;23;20391;-85
2023/05/09 10:53:56;;;;;;;4.75;4.32;;;;;;;;;;12670191;23;20383;-85
2023/05/09 10:58:59;;;;;;;5.40;4.20;;;;;;;;;;12666274;23;20454;-83
2023/05/09 11:04:02;;;;;;;4.77;3.90;;;;;;;;;;12666127;23;20371;-85
2023/05/09 11:09:26;;;;;;;4.35;3.92;;;;;;;;;;12664099;23;20799;-83
2023/05/09 11:14:33;;;;;;;4.65;4.10;;;;;;;;;;12665362;23;20371;-82
2023/05/09 11:19:38;;;;;;;4.60;3.85;;;;;;;;;;12656293;23;20911;-83
2023/05/09 11:24:45;;;;;;;5.72;4.20;;;;;;;;;;12655665;23;20437;-82
2023/05/09 11:29:51;;;;;;;5.80;4.70;;;;;;;;;;12654793;23;20395;-82
2023/05/09 11:35:08;;;;;;;5.20;4.38;;;;;;;;;;12655546;23;20442;-81
2023/05/09 11:40:13;;;;;;;6.03;4.55;;;;;;;;;;12654145;23;20430;-82
2023/05/09 11:45:16;;;;;;;4.85;4.35;;;;;;;;;;12655642;23;20452;-81
2023/05/09 11:50:20;;;;;;;5.57;4.07;;;;;;;;;;12655906;23;20399;-81
2023/05/09 11:55:28;;;;;;;5.43;4.17;;;;;;;;;;12653309;23;20386;-81
2023/05/09 12:00:30;;;;;;;3.97;3.58;;;;;;;;;;12655520;23;20462;-81
2023/05/09 12:05:33;;;;;;;4.30;3.63;;;;;;;;;;12655416;23;20391;-81
2023/05/09 12:10:39;;;;;;;4.53;3.77;;;;;;;;;;12658398;23;20394;-82
2023/05/09 12:15:41;;;;;;;4.70;4.20;;;;;;;;;;12661469;23;20383;-82
2023/05/09 12:20:44;;;;;;;4.20;3.80;;;;;;;;;;12665575;23;20403;-82
2023/05/09 12:25:53;;;;;;;4.70;3.40;;;;;;;;;;12664698;23;20379;-81
2023/05/09 12:30:56;;;;;;;5.30;3.85;;;;;;;;;;12662392;23;20930;-82
2023/05/09 12:36:04;;;;;;;5.15;3.80;;;;;;;;;;12667626;23;20437;-82
2023/05/09 12:41:09;;;;;;;5.93;4.07;;;;;;;;;;12666003;23;20462;-82
2023/05/09 12:46:11;;;;;;;5.68;4.53;;;;;;;;;;12668159;23;20424;-82
2023/05/09 12:51:18;;;;;;;5.65;4.15;;;;;;;;;;12665971;23;20453;-83
2023/05/09 12:56:22;;;;;;;5.15;4.22;;;;;;;;;;12666951;23;20371;-82
2023/05/09 13:01:28;;;;;;;4.47;4.07;;;;;;;;;;12667357;23;21193;-81
2023/05/09 13:06:30;;;;;;;7.00;4.00;;;;;;;;;;12661286;23;20465;-82
2023/05/09 13:11:36;;;;;;;3.72;3.35;;;;;;;;;;12662242;23;20395;-81
2023/05/09 13:16:39;;;;;;;5.05;3.80;;;;;;;;;;12664745;23;20438;-82
2023/05/09 13:21:41;;;;;;;5.00;3.70;;;;;;;;;;12664518;23;20375;-81
2023/05/09 13:26:44;;;;;;;4.70;3.50;;;;;;;;;;12664699;23;20442;-81
2023/05/09 13:31:47;;;;;;;5.28;3.30;;;;;;;;;;12662886;23;20395;-81
2023/05/09 13:36:49;;;;;;;4.28;3.25;;;;;;;;;;12664373;23;20414;-80
2023/05/09 13:41:53;;;;;;;3.93;3.07;;;;;;;;;;12662775;23;20917;-81
2023/05/09 13:46:56;;;;;;;3.53;3.22;;;;;;;;;;12662042;23;20406;-81
2023/05/09 13:51:58;;;;;;;3.80;3.40;;;;;;;;;;12658626;23;20426;-81
2023/05/09 13:57:03;;;;;;;4.50;4.05;;;;;;;;;;12661004;23;20367;-82
2023/05/09 14:02:05;;;;;;;4.47;3.70;;;;;;;;;;12665678;23;20379;-83
2023/05/09 14:07:09;;;;;;;4.60;3.90;;;;;;;;;;12663365;23;20379;-82
2023/05/09 14:12:13;;;;;;;4.75;4.00;;;;;;;;;;12665794;23;20403;-82
2023/05/09 14:17:15;;;;;;;4.45;3.60;;;;;;;;;;12665955;23;20371;-82
2023/05/09 14:22:18;;;;;;;5.65;4.15;;;;;;;;;;12669727;23;20375;-82
2023/05/09 14:27:21;;;;;;;4.33;3.77;;;;;;;;;;12668051;23;20438;-82
2023/05/09 14:32:24;;;;;;;4.88;3.55;;;;;;;;;;12669542;23;20391;-82
2023/05/09 14:37:26;;;;;;;6.40;3.95;;;;;;;;;;12665150;23;20372;-83
2023/05/09 14:42:30;;;;;;;5.32;3.70;;;;;;;;;;12667148;23;20375;-83
2023/05/09 14:47:33;;;;;;;5.65;3.75;;;;;;;;;;12666264;23;20375;-83
2023/05/09 14:52:35;;;;;;;4.28;3.50;;;;;;;;;;12661689;23;20367;-82
2023/05/09 14:57:38;;;;;;;5.38;4.00;;;;;;;;;;12665302;23;20367;-82
2023/05/09 15:02:41;;;;;;;4.13;3.72;;;;;;;;;;12660379;23;20482;-83
2023/05/09 15:07:43;;;;;;;6.05;3.85;;;;;;;;;;12658621;23;20383;-83
2023/05/09 15:12:47;;;;;;;4.47;3.60;;;;;;;;;;12659055;23;20394;-83
2023/05/09 15:17:49;;;;;;;5.80;4.10;;;;;;;;;;12660291;23;20760;-83
2023/05/09 15:22:52;;;;;;;5.68;3.80;;;;;;;;;;12658673;23;20387;-84
2023/05/09 15:27:55;;;;;;;7.30;3.92;;;;;;;;;;12658951;23;20386;-82
2023/05/09 15:32:58;;;;;;;8.82;3.95;;;;;;;;;;12659755;23;20680;-83
2023/05/09 15:38:00;;;;;;;5.90;4.30;;;;;;;;;;12659329;23;20363;-83
2023/05/09 15:43:04;;;;;;;4.90;3.78;;;;;;;;;;12662184;23;20447;-82
2023/05/09 15:48:07;;;;;;;6.20;3.90;;;;;;;;;;12656801;23;20960;-83
2023/05/09 15:53:09;;;;;;;4.82;3.92;;;;;;;;;;12659483;23;20446;-83
2023/05/09 15:58:15;;;;;;;4.88;3.78;;;;;;;;;;12658765;23;20729;-82
2023/05/09 16:03:18;;;;;;;4.68;3.83;;;;;;;;;;12659796;23;20417;-82
2023/05/09 16:08:20;;;;;;;5.97;3.85;;;;;;;;;;12655945;23;20386;-82
2023/05/09 16:13:23;;;;;;;7.83;3.70;;;;;;;;;;12655496;23;20851;-81
2023/05/09 16:18:26;;;;;;;4.60;3.67;;;;;;;;;;12657549;23;20418;-81
2023/05/09 16:23:28;;;;;;;4.73;3.50;;;;;;;;;;12659954;23;20856;-82
2023/05/09 16:28:32;;;;;;;4.70;3.75;;;;;;;;;;12659569;23;20474;-82
2023/05/09 16:33:35;;;;;;;4.28;3.70;;;;;;;;;;12659144;23;20379;-82
2023/05/09 16:38:37;;;;;;;4.87;3.50;;;;;;;;;;12659582;23;20383;-82
2023/05/09 16:43:41;;;;;;;3.72;3.42;;;;;;;;;;12660623;23;20897;-81
2023/05/09 16:48:43;;;;;;;6.63;3.67;;;;;;;;;;12655994;23;20922;-82
2023/05/09 16:53:46;;;;;;;6.07;3.63;;;;;;;;;;12656235;23;20375;-81
2023/05/09 16:58:50;;;;;;;4.10;3.22;;;;;;;;;;12654412;23;20419;-82
2023/05/09 17:03:52;;;;;;;4.60;3.30;;;;;;;;;;12656510;23;20434;-82
2023/05/09 17:08:55;;;;;;;3.67;3.30;;;;;;;;;;12655437;23;20450;-82
2023/05/09 17:13:58;;;;;;;4.40;3.70;;;;;;;;;;12654947;23;20752;-82
2023/05/09 17:19:00;;;;;;;3.60;3.30;;;;;;;;;;12655617;23;20403;-82
2023/05/09 17:24:03;;;;;;;4.18;3.38;;;;;;;;;;12651985;23;20509;-80
2023/05/09 17:29:06;;;;;;;3.83;3.10;;;;;;;;;;12652859;23;20398;-82
2023/05/09 17:34:09;;;;;;;4.82;3.10;;;;;;;;;;12656062;23;20464;-81
2023/05/09 17:39:11;;;;;;;3.43;3.10;;;;;;;;;;12652252;23;20441;-81
2023/05/09 17:44:15;;;;;;;5.22;3.50;;;;;;;;;;12653130;23;20450;-82
2023/05/09 17:49:17;;;;;;;4.25;3.50;;;;;;;;;;12651242;23;20387;-82
2023/05/09 17:54:20;;;;;;;4.32;3.10;;;;;;;;;;12658869;23;20390;-80
2023/05/09 17:59:23;;;;;;;3.67;3.08;;;;;;;;;;12664475;23;20857;-83
2023/05/09 18:04:28;;;;;;;3.40;3.10;;;;;;;;;;12664817;23;20407;-81
2023/05/09 18:09:31;;;;;;;4.18;3.17;;;;;;;;;;12665225;23;21001;-81
2023/05/09 18:14:38;;;;;;;4.00;2.90;;;;;;;;;;12664598;23;21712;-80
2023/05/09 18:19:41;;;;;;;4.13;3.03;;;;;;;;;;12665212;23;20375;-80
2023/05/09 18:24:43;;;;;;;3.53;3.22;;;;;;;;;;12661689;23;20376;-83
2023/05/09 18:29:47;;;;;;;4.55;3.00;;;;;;;;;;12657414;23;20450;-82
2023/05/09 18:34:49;;;;;;;5.20;4.00;;;;;;;;;;12659985;23;20383;-81
2023/05/09 18:39:52;;;;;;;4.35;3.40;;;;;;;;;;12657207;23;20887;-83
2023/05/09 18:44:56;;;;;;;4.18;3.15;;;;;;;;;;12659603;23;20375;-83
2023/05/09 18:49:58;;;;;;;3.45;2.83;;;;;;;;;;12660567;23;20395;-83
2023/05/09 18:55:00;;;;;;;3.53;3.22;;;;;;;;;;12658831;23;20446;-85
2023/05/09 19:00:05;;;;;;;4.37;3.40;;;;;;;;;;12661451;23;20914;-85
2023/05/09 19:05:09;;;;;;;4.53;3.47;;;;;;;;;;12661280;23;20698;-85
2023/05/09 19:10:13;;;;;;;3.95;3.30;;;;;;;;;;12660982;23;20398;-85
2023/05/09 19:15:16;;;;;;;4.73;3.50;;;;;;;;;;12662109;23;20690;-85
2023/05/09 19:20:19;;;;;;;4.13;3.40;;;;;;;;;;12660895;23;20383;-84
2023/05/09 19:25:21;;;;;;;4.70;3.40;;;;;;;;;;12661802;23;20386;-84
2023/05/09 19:30:25;;;;;;;5.18;3.60;;;;;;;;;;12661570;23;20395;-84
2023/05/09 19:35:27;;;;;;;4.20;3.43;;;;;;;;;;12660330;23;20387;-87
2023/05/09 19:40:29;;;;;;;5.07;3.45;;;;;;;;;;12662474;23;20442;-85
2023/05/09 19:45:33;;;;;;;4.05;3.40;;;;;;;;;;12660210;23;20445;-83
2023/05/09 19:50:35;;;;;;;4.97;2.90;;;;;;;;;;12646573;23;20456;-84
2023/05/09 19:55:38;;;;;;;3.90;3.50;;;;;;;;;;12658751;23;20372;-82
2023/05/09 20:00:41;;;;;;;5.10;3.57;;;;;;;;;;12614247;23;20422;-82
2023/05/09 20:05:43;;;;;;;3.90;3.23;;;;;;;;;;12656173;23;20462;-84
2023/05/09 20:10:46;;;;;;;4.50;3.72;;;;;;;;;;12659256;23;20394;-84
2023/05/09 20:15:49;;;;;;;6.15;4.03;;;;;;;;;;12651460;23;20458;-84
2023/05/09 20:20:53;;;;;;;4.63;3.70;;;;;;;;;;12657755;23;20461;-84
2023/05/09 20:25:55;;;;;;;4.60;3.70;;;;;;;;;;12654342;23;20387;-83
2023/05/09 20:30:59;;;;;;;5.93;4.15;;;;;;;;;;12651323;23;20455;-83
2023/05/09 20:36:01;;;;;;;5.03;4.07;;;;;;;;;;12657771;23;20383;-84
2023/05/09 20:41:04;;;;;;;5.13;3.78;;;;;;;;;;12654291;23;20407;-83
2023/05/09 20:46:07;;;;;;;4.10;3.50;;;;;;;;;;12657350;23;20836;-83
2023/05/09 20:51:10;;;;;;;3.73;3.33;;;;;;;;;;12658377;23;20426;-83
2023/05/09 20:56:12;;;;;;;3.85;3.47;;;;;;;;;;12659221;23;20387;-83
2023/05/09 21:01:16;;;;;;;4.27;3.70;;;;;;;;;;12659535;23;20450;-83
2023/05/09 21:06:18;;;;;;;4.63;4.13;;;;;;;;;;12657950;23;20383;-83
2023/05/09 21:11:20;;;;;;;5.43;4.00;;;;;;;;;;12659567;23;20395;-83
2023/05/09 21:16:24;;;;;;;5.67;4.50;;;;;;;;;;12659929;23;20450;-84
2023/05/09 21:21:26;;;;;;;5.30;4.63;;;;;;;;;;12659909;23;20383;-84
2023/05/09 21:26:29;;;;;;;5.40;4.90;;;;;;;;;;12661421;23;20846;-83
2023/05/09 21:31:33;;;;;;;5.97;5.07;;;;;;;;;;12664092;23;20394;-84
2023/05/09 21:36:36;;;;;;;7.50;5.18;;;;;;;;;;12663786;23;20448;-83
2023/05/09 21:41:41;;;;;;;7.15;5.78;;;;;;;;;;12664452;23;20383;-83
2023/05/09 21:46:45;;;;;;;5.57;4.32;;;;;;;;;;12663248;23;20382;-83
2023/05/09 21:51:47;;;;;;;4.88;4.03;;;;;;;;;;12662566;23;20482;-82
2023/05/09 21:56:50;;;;;;;7.13;3.63;;;;;;;;;;12661461;23;21495;-82
2023/05/09 22:01:53;;;;;;;4.03;2.80;;;;;;;;;;12660930;23;20445;-83
2023/05/09 22:06:56;;;;;;;3.43;2.63;;;;;;;;;;12663152;23;20387;-83
2023/05/09 22:11:58;;;;;;;2.63;2.42;;;;;;;;;;12662270;23;20399;-83
2023/05/09 22:17:02;;;;;;;2.87;2.00;;;;;;;;;;12666319;23;20446;-83
2023/05/09 22:22:04;;;;;;;3.57;1.87;;;;;;;;;;12667241;23;20429;-83
2023/05/09 22:27:06;;;;;;;2.13;1.60;;;;;;;;;;12668358;23;20383;-83
2023/05/09 22:32:10;;;;;;;2.23;1.70;;;;;;;;;;12669099;23;20450;-83
2023/05/09 22:37:12;;;;;;;1.90;1.60;;;;;;;;;;12666227;23;20367;-84
2023/05/09 22:42:14;;;;;;;2.90;1.85;;;;;;;;;;12668484;23;20430;-83
2023/05/09 22:47:18;;;;;;;2.30;1.80;;;;;;;;;;12669346;23;20363;-83
2023/05/09 22:52:20;;;;;;;5.10;1.98;;;;;;;;;;12669673;23;20422;-83
2023/05/09 22:57:22;;;;;;;2.90;1.80;;;;;;;;;;12669604;23;20410;-82
2023/05/09 23:02:27;;;;;;;2.15;1.90;;;;;;;;;;12669292;23;20411;-83
2023/05/09 23:07:29;;;;;;;4.80;1.70;;;;;;;;;;12628977;23;20412;-83
2023/05/09 23:12:31;;;;;;;2.17;1.83;;;;;;;;;;12606299;23;20389;-83
2023/05/09 23:17:35;;;;;;;2.10;1.90;;;;;;;;;;12608773;23;20962;-83
2023/05/09 23:22:37;;;;;;;3.40;1.70;;;;;;;;;;12607874;23;20376;-83
2023/05/09 23:27:40;;;;;;;3.93;1.90;;;;;;;;;;12608834;23;20458;-83
2023/05/09 23:32:44;;;;;;;2.28;1.80;;;;;;;;;;12607952;23;20515;-83
2023/05/09 23:37:46;;;;;;;3.30;2.03;;;;;;;;;;12607888;23;20774;-83
2023/05/09 23:42:48;;;;;;;2.10;1.80;;;;;;;;;;12608523;23;20381;-83
2023/05/09 23:47:52;;;;;;;2.33;2.13;;;;;;;;;;12606764;23;20845;-83
2023/05/09 23:52:54;;;;;;;3.85;2.00;;;;;;;;;;12608154;23;20456;-83
2023/05/09 23:57:56;;;;;;;1.98;1.70;;;;;;;;;;12608390;23;20432;-83
